sensor_id;sensor_type;location;lat;lon;timestamp;P1;durP1;ratioP1;P2;durP2;ratioP2
21492;SDS011;10908;50.690;4.400;2023-06-22T00:00:50;5.35;;;2.55;;
21492;SDS011;10908;50.690;4.400;2023-06-22T00:03:17;6.40;;;3.03;;
21492;SDS011;10908;50.690;4.400;2023-06-22T00:05:44;8.18;;;3.08;;
21492;SDS011;10908;50.690;4.400;2023-06-22T00:08:10;6.15;;;2.85;;
21492;SDS011;10908;50.690;4.400;2023-06-22T00:10:36;7.00;;;2.97;;
21492;SDS011;10908;50.690;4.400;2023-06-22T00:13:02;5.40;;;2.90;;
21492;SDS011;10908;50.690;4.400;2023-06-22T00:15:28;6.03;;;3.00;;
21492;SDS011;10908;50.690;4.400;2023-06-22T00:17:54;5.90;;;2.88;;
21492;SDS011;10908;50.690;4.400;2023-06-22T00:20:20;6.82;;;2.95;;
21492;SDS011;10908;50.690;4.400;2023-06-22T00:22:45;6.53;;;3.15;;
21492;SDS011;10908;50.690;4.400;2023-06-22T00:25:13;7.00;;;3.05;;
21492;SDS011;10908;50.690;4.400;2023-06-22T00:27:38;6.78;;;3.13;;
21492;SDS011;10908;50.690;4.400;2023-06-22T00:30:04;8.32;;;3.60;;
21492;SDS011;10908;50.690;4.400;2023-06-22T00:32:30;5.60;;;2.83;;
21492;SDS011;10908;50.690;4.400;2023-06-22T00:34:56;5.78;;;3.15;;
21492;SDS011;10908;50.690;4.400;2023-06-22T00:37:21;6.05;;;3.45;;
21492;SDS011;10908;50.690;4.400;2023-06-22T00:39:50;8.13;;;3.33;;
21492;SDS011;10908;50.690;4.400;2023-06-22T00:42:16;8.20;;;3.40;;
21492;SDS011;10908;50.690;4.400;2023-06-22T00:44:42;6.63;;;2.90;;
21492;SDS011;10908;50.690;4.400;2023-06-22T00:47:08;7.32;;;3.28;;
21492;SDS011;10908;50.690;4.400;2023-06-22T00:49:34;5.25;;;2.70;;
21492;SDS011;10908;50.690;4.400;2023-06-22T00:52:00;7.57;;;3.35;;
21492;SDS011;10908;50.690;4.400;2023-06-22T00:54:25;6.47;;;3.20;;
21492;SDS011;10908;50.690;4.400;2023-06-22T00:56:53;7.43;;;3.38;;
21492;SDS011;10908;50.690;4.400;2023-06-22T00:59:21;6.18;;;3.25;;
21492;SDS011;10908;50.690;4.400;2023-06-22T01:01:48;9.95;;;3.40;;
21492;SDS011;10908;50.690;4.400;2023-06-22T01:04:13;6.97;;;3.03;;
21492;SDS011;10908;50.690;4.400;2023-06-22T01:06:41;7.82;;;3.17;;
21492;SDS011;10908;50.690;4.400;2023-06-22T01:09:15;7.90;;;3.00;;
21492;SDS011;10908;50.690;4.400;2023-06-22T01:11:54;6.60;;;3.10;;
21492;SDS011;10908;50.690;4.400;2023-06-22T01:14:47;6.00;;;3.28;;
21492;SDS011;10908;50.690;4.400;2023-06-22T01:17:20;6.72;;;2.97;;
21492;SDS011;10908;50.690;4.400;2023-06-22T01:19:49;6.13;;;3.10;;
21492;SDS011;10908;50.690;4.400;2023-06-22T01:22:20;8.50;;;3.20;;
21492;SDS011;10908;50.690;4.400;2023-06-22T01:29:46;7.15;;;3.35;;
21492;SDS011;10908;50.690;4.400;2023-06-22T01:32:17;6.95;;;2.97;;
21492;SDS011;10908;50.690;4.400;2023-06-22T01:34:44;6.57;;;3.38;;
21492;SDS011;10908;50.690;4.400;2023-06-22T01:37:11;7.22;;;3.47;;
21492;SDS011;10908;50.690;4.400;2023-06-22T01:39:37;9.00;;;3.63;;
21492;SDS011;10908;50.690;4.400;2023-06-22T01:42:03;6.65;;;3.15;;
21492;SDS011;10908;50.690;4.400;2023-06-22T01:44:30;7.28;;;3.42;;
21492;SDS011;10908;50.690;4.400;2023-06-22T01:46:56;6.97;;;3.53;;
21492;SDS011;10908;50.690;4.400;2023-06-22T01:49:22;6.97;;;3.30;;
21492;SDS011;10908;50.690;4.400;2023-06-22T01:51:48;8.13;;;3.97;;
21492;SDS011;10908;50.690;4.400;2023-06-22T01:54:14;7.28;;;3.63;;
21492;SDS011;10908;50.690;4.400;2023-06-22T01:56:39;7.72;;;3.88;;
21492;SDS011;10908;50.690;4.400;2023-06-22T01:59:48;6.53;;;3.58;;
21492;SDS011;10908;50.690;4.400;2023-06-22T02:02:10;7.43;;;3.53;;
21492;SDS011;10908;50.690;4.400;2023-06-22T02:04:44;6.72;;;3.60;;
21492;SDS011;10908;50.690;4.400;2023-06-22T02:07:14;7.30;;;4.00;;
21492;SDS011;10908;50.690;4.400;2023-06-22T02:09:43;6.65;;;3.45;;
21492;SDS011;10908;50.690;4.400;2023-06-22T02:12:11;9.98;;;3.85;;
21492;SDS011;10908;50.690;4.400;2023-06-22T02:14:38;7.05;;;3.60;;
21492;SDS011;10908;50.690;4.400;2023-06-22T02:17:05;7.68;;;3.70;;
21492;SDS011;10908;50.690;4.400;2023-06-22T02:19:37;9.23;;;3.90;;
21492;SDS011;10908;50.690;4.400;2023-06-22T02:22:03;9.18;;;4.00;;
21492;SDS011;10908;50.690;4.400;2023-06-22T02:24:29;6.28;;;3.35;;
21492;SDS011;10908;50.690;4.400;2023-06-22T02:26:57;8.05;;;3.88;;
21492;SDS011;10908;50.690;4.400;2023-06-22T02:29:23;6.95;;;3.53;;
21492;SDS011;10908;50.690;4.400;2023-06-22T02:31:49;6.55;;;3.38;;
21492;SDS011;10908;50.690;4.400;2023-06-22T02:34:14;6.57;;;3.22;;
21492;SDS011;10908;50.690;4.400;2023-06-22T02:36:44;7.70;;;3.70;;
21492;SDS011;10908;50.690;4.400;2023-06-22T02:39:20;8.50;;;3.63;;
21492;SDS011;10908;50.690;4.400;2023-06-22T02:41:47;8.57;;;3.45;;
21492;SDS011;10908;50.690;4.400;2023-06-22T02:44:17;7.97;;;3.63;;
21492;SDS011;10908;50.690;4.400;2023-06-22T02:46:44;7.50;;;3.40;;
21492;SDS011;10908;50.690;4.400;2023-06-22T02:49:10;6.57;;;3.47;;
21492;SDS011;10908;50.690;4.400;2023-06-22T02:51:37;5.50;;;2.90;;
21492;SDS011;10908;50.690;4.400;2023-06-22T02:54:04;7.00;;;3.30;;
21492;SDS011;10908;50.690;4.400;2023-06-22T02:56:30;6.63;;;3.00;;
21492;SDS011;10908;50.690;4.400;2023-06-22T02:58:56;7.32;;;3.10;;
21492;SDS011;10908;50.690;4.400;2023-06-22T03:01:28;5.53;;;2.75;;
21492;SDS011;10908;50.690;4.400;2023-06-22T03:03:55;6.55;;;2.75;;
21492;SDS011;10908;50.690;4.400;2023-06-22T03:06:21;6.30;;;3.00;;
21492;SDS011;10908;50.690;4.400;2023-06-22T03:08:49;6.35;;;2.72;;
21492;SDS011;10908;50.690;4.400;2023-06-22T03:11:16;8.48;;;2.83;;
21492;SDS011;10908;50.690;4.400;2023-06-22T03:13:41;5.85;;;2.78;;
21492;SDS011;10908;50.690;4.400;2023-06-22T03:16:07;4.93;;;2.47;;
21492;SDS011;10908;50.690;4.400;2023-06-22T03:18:33;4.97;;;2.45;;
21492;SDS011;10908;50.690;4.400;2023-06-22T03:20:59;6.25;;;2.80;;
21492;SDS011;10908;50.690;4.400;2023-06-22T03:23:25;6.05;;;2.67;;
21492;SDS011;10908;50.690;4.400;2023-06-22T03:25:50;4.22;;;2.28;;
21492;SDS011;10908;50.690;4.400;2023-06-22T03:28:16;4.97;;;2.33;;
21492;SDS011;10908;50.690;4.400;2023-06-22T03:30:42;6.88;;;2.80;;
21492;SDS011;10908;50.690;4.400;2023-06-22T03:33:08;9.30;;;3.00;;
21492;SDS011;10908;50.690;4.400;2023-06-22T03:35:33;7.90;;;2.80;;
21492;SDS011;10908;50.690;4.400;2023-06-22T03:37:59;5.97;;;2.63;;
21492;SDS011;10908;50.690;4.400;2023-06-22T03:40:25;6.72;;;2.63;;
21492;SDS011;10908;50.690;4.400;2023-06-22T03:42:50;5.38;;;2.55;;
21492;SDS011;10908;50.690;4.400;2023-06-22T03:45:16;7.60;;;2.95;;
21492;SDS011;10908;50.690;4.400;2023-06-22T03:47:41;6.50;;;3.53;;
21492;SDS011;10908;50.690;4.400;2023-06-22T03:50:07;8.32;;;3.80;;
21492;SDS011;10908;50.690;4.400;2023-06-22T03:52:33;6.43;;;3.50;;
21492;SDS011;10908;50.690;4.400;2023-06-22T03:54:59;7.03;;;3.70;;
21492;SDS011;10908;50.690;4.400;2023-06-22T03:57:24;8.10;;;3.70;;
21492;SDS011;10908;50.690;4.400;2023-06-22T03:59:50;8.75;;;3.90;;
21492;SDS011;10908;50.690;4.400;2023-06-22T04:02:15;8.10;;;3.85;;
21492;SDS011;10908;50.690;4.400;2023-06-22T04:04:41;7.28;;;3.95;;
21492;SDS011;10908;50.690;4.400;2023-06-22T04:07:07;7.85;;;4.13;;
21492;SDS011;10908;50.690;4.400;2023-06-22T04:09:33;7.43;;;4.45;;
21492;SDS011;10908;50.690;4.400;2023-06-22T04:11:59;9.82;;;4.47;;
21492;SDS011;10908;50.690;4.400;2023-06-22T04:14:26;10.25;;;5.10;;
21492;SDS011;10908;50.690;4.400;2023-06-22T04:16:52;8.25;;;5.53;;
21492;SDS011;10908;50.690;4.400;2023-06-22T04:19:17;10.15;;;5.78;;
21492;SDS011;10908;50.690;4.400;2023-06-22T04:21:43;12.73;;;6.32;;
21492;SDS011;10908;50.690;4.400;2023-06-22T04:24:09;11.80;;;6.43;;
21492;SDS011;10908;50.690;4.400;2023-06-22T04:26:36;10.18;;;6.28;;
21492;SDS011;10908;50.690;4.400;2023-06-22T04:29:05;10.15;;;6.20;;
21492;SDS011;10908;50.690;4.400;2023-06-22T04:31:31;10.60;;;6.25;;
21492;SDS011;10908;50.690;4.400;2023-06-22T04:34:02;10.05;;;5.80;;
21492;SDS011;10908;50.690;4.400;2023-06-22T04:36:40;11.35;;;6.13;;
21492;SDS011;10908;50.690;4.400;2023-06-22T04:39:07;11.63;;;6.60;;
21492;SDS011;10908;50.690;4.400;2023-06-22T04:41:34;11.70;;;6.53;;
21492;SDS011;10908;50.690;4.400;2023-06-22T04:44:16;10.38;;;6.15;;
21492;SDS011;10908;50.690;4.400;2023-06-22T04:46:49;10.90;;;5.75;;
21492;SDS011;10908;50.690;4.400;2023-06-22T04:49:19;11.30;;;6.50;;
21492;SDS011;10908;50.690;4.400;2023-06-22T04:51:45;11.98;;;6.28;;
21492;SDS011;10908;50.690;4.400;2023-06-22T04:54:11;11.57;;;6.18;;
21492;SDS011;10908;50.690;4.400;2023-06-22T04:56:36;11.93;;;6.47;;
21492;SDS011;10908;50.690;4.400;2023-06-22T04:59:02;12.18;;;6.60;;
21492;SDS011;10908;50.690;4.400;2023-06-22T05:01:28;14.25;;;7.13;;
21492;SDS011;10908;50.690;4.400;2023-06-22T05:03:56;11.65;;;6.97;;
21492;SDS011;10908;50.690;4.400;2023-06-22T05:06:22;13.23;;;7.60;;
21492;SDS011;10908;50.690;4.400;2023-06-22T05:08:54;13.88;;;8.10;;
21492;SDS011;10908;50.690;4.400;2023-06-22T05:11:25;15.07;;;8.20;;
21492;SDS011;10908;50.690;4.400;2023-06-22T05:13:51;12.05;;;7.60;;
21492;SDS011;10908;50.690;4.400;2023-06-22T05:16:17;14.20;;;7.80;;
21492;SDS011;10908;50.690;4.400;2023-06-22T05:18:48;12.93;;;7.80;;
21492;SDS011;10908;50.690;4.400;2023-06-22T05:21:13;13.48;;;8.02;;
21492;SDS011;10908;50.690;4.400;2023-06-22T05:23:39;13.65;;;7.93;;
21492;SDS011;10908;50.690;4.400;2023-06-22T05:26:04;15.75;;;7.78;;
21492;SDS011;10908;50.690;4.400;2023-06-22T05:28:30;12.43;;;7.45;;
21492;SDS011;10908;50.690;4.400;2023-06-22T05:30:55;13.30;;;8.27;;
21492;SDS011;10908;50.690;4.400;2023-06-22T05:33:21;14.90;;;9.35;;
21492;SDS011;10908;50.690;4.400;2023-06-22T05:35:47;15.48;;;9.35;;
21492;SDS011;10908;50.690;4.400;2023-06-22T05:38:12;16.00;;;9.68;;
21492;SDS011;10908;50.690;4.400;2023-06-22T05:40:39;16.15;;;10.63;;
21492;SDS011;10908;50.690;4.400;2023-06-22T05:43:04;18.63;;;10.80;;
21492;SDS011;10908;50.690;4.400;2023-06-22T05:45:30;19.77;;;11.05;;
21492;SDS011;10908;50.690;4.400;2023-06-22T05:47:55;17.15;;;11.25;;
21492;SDS011;10908;50.690;4.400;2023-06-22T05:50:21;15.05;;;10.90;;
21492;SDS011;10908;50.690;4.400;2023-06-22T05:52:46;18.67;;;11.75;;
21492;SDS011;10908;50.690;4.400;2023-06-22T05:55:12;18.58;;;11.73;;
21492;SDS011;10908;50.690;4.400;2023-06-22T05:57:38;17.35;;;12.10;;
21492;SDS011;10908;50.690;4.400;2023-06-22T06:00:03;17.45;;;12.45;;
21492;SDS011;10908;50.690;4.400;2023-06-22T06:02:35;20.30;;;13.32;;
21492;SDS011;10908;50.690;4.400;2023-06-22T06:05:01;23.63;;;13.50;;
21492;SDS011;10908;50.690;4.400;2023-06-22T06:07:27;21.67;;;14.10;;
21492;SDS011;10908;50.690;4.400;2023-06-22T06:09:54;22.52;;;14.45;;
21492;SDS011;10908;50.690;4.400;2023-06-22T06:12:19;20.65;;;14.32;;
21492;SDS011;10908;50.690;4.400;2023-06-22T06:14:45;19.90;;;14.10;;
21492;SDS011;10908;50.690;4.400;2023-06-22T06:17:10;20.58;;;14.32;;
21492;SDS011;10908;50.690;4.400;2023-06-22T06:19:36;21.75;;;14.07;;
21492;SDS011;10908;50.690;4.400;2023-06-22T06:22:02;24.75;;;14.23;;
21492;SDS011;10908;50.690;4.400;2023-06-22T06:24:27;22.48;;;15.35;;
21492;SDS011;10908;50.690;4.400;2023-06-22T06:26:53;21.77;;;14.95;;
21492;SDS011;10908;50.690;4.400;2023-06-22T06:29:19;22.35;;;14.85;;
21492;SDS011;10908;50.690;4.400;2023-06-22T06:31:44;23.35;;;14.95;;
21492;SDS011;10908;50.690;4.400;2023-06-22T06:34:10;23.50;;;14.82;;
21492;SDS011;10908;50.690;4.400;2023-06-22T06:36:35;24.77;;;14.90;;
21492;SDS011;10908;50.690;4.400;2023-06-22T06:39:02;23.63;;;14.65;;
21492;SDS011;10908;50.690;4.400;2023-06-22T06:41:28;23.90;;;14.93;;
21492;SDS011;10908;50.690;4.400;2023-06-22T06:43:54;22.90;;;14.98;;
21492;SDS011;10908;50.690;4.400;2023-06-22T06:46:20;20.52;;;13.90;;
21492;SDS011;10908;50.690;4.400;2023-06-22T06:48:45;23.80;;;14.18;;
21492;SDS011;10908;50.690;4.400;2023-06-22T06:51:12;23.80;;;14.68;;
21492;SDS011;10908;50.690;4.400;2023-06-22T06:53:38;22.92;;;14.63;;
21492;SDS011;10908;50.690;4.400;2023-06-22T06:56:03;22.80;;;14.32;;
21492;SDS011;10908;50.690;4.400;2023-06-22T06:58:30;19.15;;;13.43;;
21492;SDS011;10908;50.690;4.400;2023-06-22T07:00:56;21.92;;;13.48;;
21492;SDS011;10908;50.690;4.400;2023-06-22T07:03:21;21.48;;;13.85;;
21492;SDS011;10908;50.690;4.400;2023-06-22T07:05:47;23.92;;;14.02;;
21492;SDS011;10908;50.690;4.400;2023-06-22T07:08:13;25.17;;;13.80;;
21492;SDS011;10908;50.690;4.400;2023-06-22T07:10:39;23.27;;;14.45;;
21492;SDS011;10908;50.690;4.400;2023-06-22T07:13:04;23.88;;;13.18;;
21492;SDS011;10908;50.690;4.400;2023-06-22T07:15:30;21.63;;;13.75;;
21492;SDS011;10908;50.690;4.400;2023-06-22T07:17:55;23.17;;;13.75;;
21492;SDS011;10908;50.690;4.400;2023-06-22T07:20:21;20.45;;;14.05;;
21492;SDS011;10908;50.690;4.400;2023-06-22T07:22:47;25.50;;;13.20;;
21492;SDS011;10908;50.690;4.400;2023-06-22T07:25:12;19.70;;;13.07;;
21492;SDS011;10908;50.690;4.400;2023-06-22T07:30:37;18.92;;;13.07;;
21492;SDS011;10908;50.690;4.400;2023-06-22T07:33:02;21.40;;;12.30;;
21492;SDS011;10908;50.690;4.400;2023-06-22T07:35:32;20.98;;;12.48;;
21492;SDS011;10908;50.690;4.400;2023-06-22T07:37:58;22.15;;;12.57;;
21492;SDS011;10908;50.690;4.400;2023-06-22T07:40:24;17.63;;;12.00;;
21492;SDS011;10908;50.690;4.400;2023-06-22T07:42:50;23.33;;;12.23;;
21492;SDS011;10908;50.690;4.400;2023-06-22T07:45:17;20.70;;;11.82;;
21492;SDS011;10908;50.690;4.400;2023-06-22T07:47:43;18.92;;;11.73;;
21492;SDS011;10908;50.690;4.400;2023-06-22T07:50:09;19.30;;;11.70;;
21492;SDS011;10908;50.690;4.400;2023-06-22T07:52:35;20.50;;;12.10;;
21492;SDS011;10908;50.690;4.400;2023-06-22T07:55:00;17.58;;;11.63;;
21492;SDS011;10908;50.690;4.400;2023-06-22T07:57:27;16.92;;;11.50;;
21492;SDS011;10908;50.690;4.400;2023-06-22T07:59:59;20.52;;;11.70;;
21492;SDS011;10908;50.690;4.400;2023-06-22T08:02:26;18.80;;;11.60;;
21492;SDS011;10908;50.690;4.400;2023-06-22T08:04:52;18.25;;;10.88;;
21492;SDS011;10908;50.690;4.400;2023-06-22T08:07:17;18.05;;;10.93;;
21492;SDS011;10908;50.690;4.400;2023-06-22T08:09:47;18.75;;;10.60;;
21492;SDS011;10908;50.690;4.400;2023-06-22T08:12:14;16.92;;;10.23;;
21492;SDS011;10908;50.690;4.400;2023-06-22T08:14:41;16.98;;;10.00;;
21492;SDS011;10908;50.690;4.400;2023-06-22T08:17:08;17.60;;;9.45;;
21492;SDS011;10908;50.690;4.400;2023-06-22T08:19:34;15.68;;;9.10;;
21492;SDS011;10908;50.690;4.400;2023-06-22T08:21:59;13.57;;;8.60;;
21492;SDS011;10908;50.690;4.400;2023-06-22T08:24:25;15.43;;;8.95;;
21492;SDS011;10908;50.690;4.400;2023-06-22T08:26:51;14.43;;;8.35;;
21492;SDS011;10908;50.690;4.400;2023-06-22T08:29:17;13.15;;;9.05;;
21492;SDS011;10908;50.690;4.400;2023-06-22T08:31:42;14.32;;;9.05;;
21492;SDS011;10908;50.690;4.400;2023-06-22T08:34:08;12.80;;;9.05;;
21492;SDS011;10908;50.690;4.400;2023-06-22T08:36:34;15.90;;;9.18;;
21492;SDS011;10908;50.690;4.400;2023-06-22T08:39:06;16.42;;;9.27;;
21492;SDS011;10908;50.690;4.400;2023-06-22T08:41:33;16.17;;;8.52;;
21492;SDS011;10908;50.690;4.400;2023-06-22T08:43:59;16.60;;;9.13;;
21492;SDS011;10908;50.690;4.400;2023-06-22T08:46:24;15.35;;;9.52;;
21492;SDS011;10908;50.690;4.400;2023-06-22T08:48:55;14.68;;;9.82;;
21492;SDS011;10908;50.690;4.400;2023-06-22T08:51:24;19.63;;;10.20;;
21492;SDS011;10908;50.690;4.400;2023-06-22T08:53:50;14.65;;;9.45;;
21492;SDS011;10908;50.690;4.400;2023-06-22T08:56:16;13.80;;;9.75;;
21492;SDS011;10908;50.690;4.400;2023-06-22T08:58:41;16.73;;;10.13;;
21492;SDS011;10908;50.690;4.400;2023-06-22T09:01:07;16.58;;;10.05;;
21492;SDS011;10908;50.690;4.400;2023-06-22T09:03:32;15.18;;;9.55;;
21492;SDS011;10908;50.690;4.400;2023-06-22T09:06:01;14.23;;;8.88;;
21492;SDS011;10908;50.690;4.400;2023-06-22T09:08:26;16.05;;;8.68;;
21492;SDS011;10908;50.690;4.400;2023-06-22T09:10:52;20.25;;;9.43;;
21492;SDS011;10908;50.690;4.400;2023-06-22T09:13:18;17.63;;;8.57;;
21492;SDS011;10908;50.690;4.400;2023-06-22T09:15:43;14.15;;;8.80;;
21492;SDS011;10908;50.690;4.400;2023-06-22T09:18:13;15.38;;;9.13;;
21492;SDS011;10908;50.690;4.400;2023-06-22T09:20:39;12.88;;;9.20;;
21492;SDS011;10908;50.690;4.400;2023-06-22T09:23:04;15.98;;;9.40;;
21492;SDS011;10908;50.690;4.400;2023-06-22T09:25:30;15.27;;;9.65;;
21492;SDS011;10908;50.690;4.400;2023-06-22T09:27:56;15.07;;;9.65;;
21492;SDS011;10908;50.690;4.400;2023-06-22T09:30:22;24.42;;;10.18;;
21492;SDS011;10908;50.690;4.400;2023-06-22T09:32:47;18.70;;;10.15;;
21492;SDS011;10908;50.690;4.400;2023-06-22T09:35:13;20.45;;;10.57;;
21492;SDS011;10908;50.690;4.400;2023-06-22T09:37:39;17.67;;;10.70;;
21492;SDS011;10908;50.690;4.400;2023-06-22T09:40:06;19.67;;;11.63;;
21492;SDS011;10908;50.690;4.400;2023-06-22T09:42:37;15.30;;;10.63;;
21492;SDS011;10908;50.690;4.400;2023-06-22T09:45:04;19.60;;;11.02;;
21492;SDS011;10908;50.690;4.400;2023-06-22T09:47:30;18.17;;;11.82;;
21492;SDS011;10908;50.690;4.400;2023-06-22T09:49:56;19.15;;;12.75;;
21492;SDS011;10908;50.690;4.400;2023-06-22T09:52:24;21.38;;;14.15;;
21492;SDS011;10908;50.690;4.400;2023-06-22T09:54:49;22.67;;;14.10;;
21492;SDS011;10908;50.690;4.400;2023-06-22T09:57:15;22.10;;;13.60;;
21492;SDS011;10908;50.690;4.400;2023-06-22T09:59:41;20.15;;;14.40;;
21492;SDS011;10908;50.690;4.400;2023-06-22T10:02:06;22.08;;;15.10;;
21492;SDS011;10908;50.690;4.400;2023-06-22T10:04:33;22.00;;;15.23;;
21492;SDS011;10908;50.690;4.400;2023-06-22T10:07:02;24.17;;;15.27;;
21492;SDS011;10908;50.690;4.400;2023-06-22T10:09:28;20.95;;;14.85;;
21492;SDS011;10908;50.690;4.400;2023-06-22T10:11:54;19.77;;;14.43;;
21492;SDS011;10908;50.690;4.400;2023-06-22T10:14:19;21.42;;;14.95;;
21492;SDS011;10908;50.690;4.400;2023-06-22T10:16:45;25.13;;;16.73;;
21492;SDS011;10908;50.690;4.400;2023-06-22T10:19:11;27.75;;;18.85;;
21492;SDS011;10908;50.690;4.400;2023-06-22T10:21:37;31.15;;;19.63;;
21492;SDS011;10908;50.690;4.400;2023-06-22T10:24:02;29.63;;;20.08;;
21492;SDS011;10908;50.690;4.400;2023-06-22T10:26:34;25.13;;;17.60;;
21492;SDS011;10908;50.690;4.400;2023-06-22T10:29:01;26.42;;;16.60;;
21492;SDS011;10908;50.690;4.400;2023-06-22T10:31:27;23.92;;;15.90;;
21492;SDS011;10908;50.690;4.400;2023-06-22T10:33:54;22.48;;;14.63;;
21492;SDS011;10908;50.690;4.400;2023-06-22T10:36:20;21.67;;;15.27;;
21492;SDS011;10908;50.690;4.400;2023-06-22T10:38:47;23.60;;;15.35;;
21492;SDS011;10908;50.690;4.400;2023-06-22T10:41:13;22.67;;;14.73;;
21492;SDS011;10908;50.690;4.400;2023-06-22T10:43:39;21.77;;;14.85;;
21492;SDS011;10908;50.690;4.400;2023-06-22T10:46:04;23.23;;;15.05;;
21492;SDS011;10908;50.690;4.400;2023-06-22T10:48:31;24.60;;;14.77;;
21492;SDS011;10908;50.690;4.400;2023-06-22T10:50:57;20.80;;;14.30;;
21492;SDS011;10908;50.690;4.400;2023-06-22T10:53:22;22.42;;;14.63;;
21492;SDS011;10908;50.690;4.400;2023-06-22T10:55:48;22.95;;;14.55;;
21492;SDS011;10908;50.690;4.400;2023-06-22T10:58:14;21.13;;;15.23;;
21492;SDS011;10908;50.690;4.400;2023-06-22T11:00:39;21.63;;;15.52;;
21492;SDS011;10908;50.690;4.400;2023-06-22T11:03:05;22.00;;;15.52;;
21492;SDS011;10908;50.690;4.400;2023-06-22T11:05:31;24.08;;;16.83;;
21492;SDS011;10908;50.690;4.400;2023-06-22T11:07:57;24.05;;;17.65;;
21492;SDS011;10908;50.690;4.400;2023-06-22T11:10:23;22.63;;;17.67;;
21492;SDS011;10908;50.690;4.400;2023-06-22T11:12:48;26.15;;;18.63;;
21492;SDS011;10908;50.690;4.400;2023-06-22T11:15:14;28.20;;;19.27;;
21492;SDS011;10908;50.690;4.400;2023-06-22T11:17:40;28.05;;;18.98;;
21492;SDS011;10908;50.690;4.400;2023-06-22T11:20:05;26.67;;;18.80;;
21492;SDS011;10908;50.690;4.400;2023-06-22T11:22:41;26.02;;;19.05;;
21492;SDS011;10908;50.690;4.400;2023-06-22T11:25:06;27.17;;;18.95;;
21492;SDS011;10908;50.690;4.400;2023-06-22T11:27:33;25.73;;;19.25;;
21492;SDS011;10908;50.690;4.400;2023-06-22T11:29:58;26.50;;;19.73;;
21492;SDS011;10908;50.690;4.400;2023-06-22T11:32:24;27.58;;;20.25;;
21492;SDS011;10908;50.690;4.400;2023-06-22T11:34:50;28.55;;;19.90;;
21492;SDS011;10908;50.690;4.400;2023-06-22T11:37:16;28.13;;;19.52;;
21492;SDS011;10908;50.690;4.400;2023-06-22T11:39:44;28.98;;;20.13;;
21492;SDS011;10908;50.690;4.400;2023-06-22T11:42:10;29.42;;;21.05;;
21492;SDS011;10908;50.690;4.400;2023-06-22T11:44:36;30.65;;;21.25;;
21492;SDS011;10908;50.690;4.400;2023-06-22T11:47:01;28.58;;;21.25;;
21492;SDS011;10908;50.690;4.400;2023-06-22T11:49:29;31.83;;;21.42;;
21492;SDS011;10908;50.690;4.400;2023-06-22T11:51:55;27.23;;;20.70;;
21492;SDS011;10908;50.690;4.400;2023-06-22T11:54:21;31.30;;;21.60;;
21492;SDS011;10908;50.690;4.400;2023-06-22T11:56:46;29.58;;;21.27;;
21492;SDS011;10908;50.690;4.400;2023-06-22T11:59:12;28.13;;;21.63;;
21492;SDS011;10908;50.690;4.400;2023-06-22T12:01:38;31.33;;;22.83;;
21492;SDS011;10908;50.690;4.400;2023-06-22T12:04:04;33.40;;;23.73;;
21492;SDS011;10908;50.690;4.400;2023-06-22T12:06:31;32.47;;;23.52;;
21492;SDS011;10908;50.690;4.400;2023-06-22T12:08:57;31.27;;;23.73;;
21492;SDS011;10908;50.690;4.400;2023-06-22T12:11:23;31.73;;;23.70;;
21492;SDS011;10908;50.690;4.400;2023-06-22T12:13:49;35.38;;;25.25;;
21492;SDS011;10908;50.690;4.400;2023-06-22T12:16:14;34.45;;;24.83;;
21492;SDS011;10908;50.690;4.400;2023-06-22T12:18:40;33.65;;;25.27;;
21492;SDS011;10908;50.690;4.400;2023-06-22T12:21:05;36.97;;;26.02;;
21492;SDS011;10908;50.690;4.400;2023-06-22T12:23:31;38.75;;;26.35;;
21492;SDS011;10908;50.690;4.400;2023-06-22T12:25:57;37.55;;;26.00;;
21492;SDS011;10908;50.690;4.400;2023-06-22T12:28:24;39.70;;;29.17;;
21492;SDS011;10908;50.690;4.400;2023-06-22T12:30:50;42.50;;;30.83;;
21492;SDS011;10908;50.690;4.400;2023-06-22T12:33:15;47.60;;;33.30;;
21492;SDS011;10908;50.690;4.400;2023-06-22T12:35:41;47.92;;;32.45;;
21492;SDS011;10908;50.690;4.400;2023-06-22T12:38:06;46.38;;;32.38;;
21492;SDS011;10908;50.690;4.400;2023-06-22T12:40:33;47.60;;;31.77;;
21492;SDS011;10908;50.690;4.400;2023-06-22T12:42:58;50.60;;;33.20;;
21492;SDS011;10908;50.690;4.400;2023-06-22T12:45:24;46.13;;;32.30;;
21492;SDS011;10908;50.690;4.400;2023-06-22T12:47:53;46.97;;;32.55;;
21492;SDS011;10908;50.690;4.400;2023-06-22T12:50:19;46.22;;;31.77;;
21492;SDS011;10908;50.690;4.400;2023-06-22T12:52:45;43.25;;;30.58;;
21492;SDS011;10908;50.690;4.400;2023-06-22T12:55:10;46.70;;;31.30;;
21492;SDS011;10908;50.690;4.400;2023-06-22T12:57:36;50.85;;;31.70;;
21492;SDS011;10908;50.690;4.400;2023-06-22T13:00:02;45.63;;;32.40;;
21492;SDS011;10908;50.690;4.400;2023-06-22T13:02:29;44.97;;;30.92;;
21492;SDS011;10908;50.690;4.400;2023-06-22T13:04:55;46.53;;;31.58;;
21492;SDS011;10908;50.690;4.400;2023-06-22T13:07:20;45.67;;;30.70;;
21492;SDS011;10908;50.690;4.400;2023-06-22T13:09:46;42.22;;;30.67;;
21492;SDS011;10908;50.690;4.400;2023-06-22T13:12:16;46.92;;;32.53;;
21492;SDS011;10908;50.690;4.400;2023-06-22T13:14:42;48.33;;;33.05;;
21492;SDS011;10908;50.690;4.400;2023-06-22T13:17:08;42.83;;;31.60;;
21492;SDS011;10908;50.690;4.400;2023-06-22T13:19:34;43.97;;;30.63;;
21492;SDS011;10908;50.690;4.400;2023-06-22T13:21:59;45.85;;;31.88;;
21492;SDS011;10908;50.690;4.400;2023-06-22T13:24:25;46.13;;;32.17;;
21492;SDS011;10908;50.690;4.400;2023-06-22T13:26:51;43.33;;;31.90;;
21492;SDS011;10908;50.690;4.400;2023-06-22T13:29:16;44.38;;;31.80;;
21492;SDS011;10908;50.690;4.400;2023-06-22T13:31:42;49.80;;;33.13;;
21492;SDS011;10908;50.690;4.400;2023-06-22T13:34:08;46.03;;;32.38;;
21492;SDS011;10908;50.690;4.400;2023-06-22T13:36:33;45.95;;;31.65;;
21492;SDS011;10908;50.690;4.400;2023-06-22T13:38:59;47.03;;;32.65;;
21492;SDS011;10908;50.690;4.400;2023-06-22T13:41:24;42.28;;;31.88;;
21492;SDS011;10908;50.690;4.400;2023-06-22T13:43:50;43.80;;;31.17;;
21492;SDS011;10908;50.690;4.400;2023-06-22T13:46:16;43.80;;;31.13;;
21492;SDS011;10908;50.690;4.400;2023-06-22T13:48:42;42.38;;;30.77;;
21492;SDS011;10908;50.690;4.400;2023-06-22T13:51:07;43.85;;;30.75;;
21492;SDS011;10908;50.690;4.400;2023-06-22T13:53:33;44.17;;;31.50;;
21492;SDS011;10908;50.690;4.400;2023-06-22T13:55:58;43.38;;;29.70;;
21492;SDS011;10908;50.690;4.400;2023-06-22T13:58:24;48.10;;;31.02;;
21492;SDS011;10908;50.690;4.400;2023-06-22T14:00:49;41.28;;;30.50;;
21492;SDS011;10908;50.690;4.400;2023-06-22T14:03:15;40.83;;;30.80;;
21492;SDS011;10908;50.690;4.400;2023-06-22T14:05:41;42.22;;;30.55;;
21492;SDS011;10908;50.690;4.400;2023-06-22T14:08:07;43.63;;;30.52;;
21492;SDS011;10908;50.690;4.400;2023-06-22T14:10:34;41.63;;;30.02;;
21492;SDS011;10908;50.690;4.400;2023-06-22T14:12:59;47.67;;;32.70;;
21492;SDS011;10908;50.690;4.400;2023-06-22T14:15:25;51.22;;;34.58;;
21492;SDS011;10908;50.690;4.400;2023-06-22T14:17:51;52.95;;;35.72;;
21492;SDS011;10908;50.690;4.400;2023-06-22T14:20:18;57.50;;;37.72;;
21492;SDS011;10908;50.690;4.400;2023-06-22T14:22:44;52.55;;;36.33;;
21492;SDS011;10908;50.690;4.400;2023-06-22T14:25:10;52.95;;;36.97;;
21492;SDS011;10908;50.690;4.400;2023-06-22T14:27:35;57.97;;;38.58;;
21492;SDS011;10908;50.690;4.400;2023-06-22T14:30:01;53.00;;;36.35;;
21492;SDS011;10908;50.690;4.400;2023-06-22T14:32:27;53.60;;;36.70;;
21492;SDS011;10908;50.690;4.400;2023-06-22T14:34:56;51.33;;;36.78;;